Time;durP1;ratioP1;P1;durP2;ratioP2;P2;SDS_P1;SDS_P2;PMS_P1;PMS_P2;Temp;Humidity;BMP_temperature;BMP_pressure;BME280_temperature;BME280_humidity;BME280_pressure;Samples;Min_cycle;Max_cycle;Signal;HPM_P1;HPM_P2
2021/09/16 00:00:59;;;;;;;15.55;9.82;;;15.30;99.90;;;;;;5101721;28;20047;-60
2021/09/16 00:03:25;;;;;;;;;;;15.30;99.90;;;;;;5102769;28;20120;-60
2021/09/16 00:05:50;;;;;;;17.42;10.57;;;15.30;99.90;;;;;;5102869;28;19920;-60
2021/09/16 00:08:16;;;;;;;16.77;9.60;;;15.20;99.90;;;;;;5103309;28;20421;-60
2021/09/16 00:10:41;;;;;;;;;;;15.20;99.90;;;;;;5102711;28;20040;-61
2021/09/16 00:13:07;;;;;;;13.98;9.13;;;15.30;99.90;;;;;;5102089;28;20014;-60
2021/09/16 00:15:32;;;;;;;;;;;15.20;99.90;;;;;;5102229;28;20043;-61
2021/09/16 00:17:58;;;;;;;12.65;7.50;;;15.10;99.90;;;;;;5094653;28;20375;-61
2021/09/16 00:20:23;;;;;;;;;;;15.00;99.90;;;;;;5089160;28;20032;-62
2021/09/16 00:22:49;;;;;;;8.88;6.22;;;15.00;99.90;;;;;;5088549;28;19912;-62
2021/09/16 00:25:14;;;;;;;;;;;15.00;99.90;;;;;;5089288;28;20975;-62
2021/09/16 00:27:40;;;;;;;11.02;7.88;;;15.00;99.90;;;;;;5088202;28;19916;-61
2021/09/16 00:30:06;;;;;;;;;;;14.90;99.90;;;;;;5088913;28;21090;-61
2021/09/16 00:32:31;;;;;;;19.23;8.48;;;14.90;99.90;;;;;;5081776;28;19926;-62
2021/09/16 00:34:57;;;;;;;;;;;14.80;99.90;;;;;;5088852;28;20130;-61
2021/09/16 00:37:22;;;;;;;9.85;6.78;;;14.70;99.90;;;;;;5088452;28;19920;-62
2021/09/16 00:39:48;;;;;;;;;;;14.80;99.90;;;;;;5089083;28;20047;-61
2021/09/16 00:42:18;;;;;;;9.18;6.18;;;14.70;99.90;;;;;;5084900;28;20489;-62
2021/09/16 00:44:44;;;;;;;14.77;8.63;;;14.70;99.90;;;;;;5086713;28;20148;-62
2021/09/16 00:47:10;;;;;;;10.38;6.57;;;14.70;99.90;;;;;;5087944;28;20494;-62
2021/09/16 00:49:36;;;;;;;10.70;6.43;;;14.70;99.90;;;;;;5087687;28;20619;-62
2021/09/16 00:52:02;;;;;;;;;;;14.80;99.90;;;;;;5088919;28;20043;-62
2021/09/16 00:54:33;;;;;;;8.98;6.35;;;14.90;99.90;;;;;;5087551;28;19920;-60
2021/09/16 00:57:01;;;;;;;9.05;6.40;;;14.90;99.90;;;;;;5089078;28;20540;-61
2021/09/16 00:59:26;;;;;;;14.75;7.10;;;14.90;99.90;;;;;;5087300;28;20043;-61
2021/09/16 01:01:52;;;;;;;;;;;14.80;99.90;;;;;;5062638;28;20040;-60
2021/09/16 01:04:17;;;;;;;16.00;7.57;;;14.80;99.90;;;;;;5088019;28;19986;-60
2021/09/16 01:06:43;;;;;;;;;;;14.80;99.90;;;;;;5088650;28;20040;-60
2021/09/16 01:09:12;;;;;;;13.45;7.50;;;14.80;99.90;;;;;;5088628;28;19923;-60
2021/09/16 01:11:39;;;;;;;9.15;6.35;;;14.90;99.90;;;;;;5087649;28;20043;-60
2021/09/16 01:14:07;;;;;;;13.57;8.57;;;14.80;99.90;;;;;;5087883;28;20652;-60
2021/09/16 01:16:33;;;;;;;10.52;7.10;;;14.80;99.90;;;;;;5088083;28;20047;-60
2021/09/16 01:18:59;;;;;;;;;;;14.80;99.90;;;;;;5070479;28;20036;-60
2021/09/16 01:21:24;;;;;;;10.00;6.45;;;14.70;99.90;;;;;;5084970;28;19923;-60
2021/09/16 01:23:50;;;;;;;;;;;14.70;99.90;;;;;;5087679;28;20531;-61
2021/09/16 01:26:16;;;;;;;12.00;6.75;;;14.70;99.90;;;;;;5087659;28;19924;-61
2021/09/16 01:28:41;;;;;;;;;;;14.80;99.90;;;;;;5088134;28;20036;-62
2021/09/16 01:31:07;;;;;;;9.18;5.95;;;14.70;99.90;;;;;;5079605;28;20357;-60
2021/09/16 01:33:32;;;;;;;;;;;14.70;99.90;;;;;;5087916;28;20036;-61
2021/09/16 01:35:58;;;;;;;16.00;6.80;;;14.70;99.90;;;;;;5085818;28;20375;-61
2021/09/16 01:38:23;;;;;;;;;;;14.70;99.90;;;;;;5088923;28;20056;-60
2021/09/16 01:40:49;;;;;;;10.90;7.57;;;14.60;99.90;;;;;;5087573;28;19942;-61
2021/09/16 01:43:16;;;;;;;15.80;7.90;;;14.60;99.90;;;;;;5085230;28;20674;-61
2021/09/16 01:45:41;;;;;;;16.45;8.45;;;14.50;99.90;;;;;;5087392;28;20049;-61
2021/09/16 01:48:07;;;;;;;;;;;14.50;99.90;;;;;;5088081;28;20039;-61
2021/09/16 01:50:33;;;;;;;10.65;7.30;;;14.60;99.90;;;;;;5086645;28;20006;-61
2021/09/16 01:52:58;;;;;;;12.50;8.02;;;14.60;99.90;;;;;;5085004;28;20036;-61
2021/09/16 01:55:24;;;;;;;;;;;14.60;99.90;;;;;;5069482;28;20550;-61
2021/09/16 01:57:49;;;;;;;10.77;7.38;;;14.60;99.90;;;;;;5069942;28;20001;-61
2021/09/16 02:00:15;;;;;;;;;;;14.60;99.90;;;;;;5083848;28;20498;-61
2021/09/16 02:02:42;;;;;;;16.00;9.35;;;14.60;99.90;;;;;;5080609;28;19923;-61
2021/09/16 02:05:08;;;;;;;11.15;8.85;;;14.50;99.90;;;;;;5082737;28;20107;-61
2021/09/16 02:07:34;;;;;;;16.40;9.43;;;14.60;99.90;;;;;;5087065;28;20048;-60
2021/09/16 02:10:00;;;;;;;;;;;14.50;99.90;;;;;;5087490;28;20482;-60
2021/09/16 02:12:25;;;;;;;13.63;9.18;;;14.60;99.90;;;;;;5087210;28;19919;-60
2021/09/16 02:14:51;;;;;;;;;;;14.50;99.90;;;;;;5088227;28;20534;-60
2021/09/16 02:17:17;;;;;;;13.82;9.38;;;14.50;99.90;;;;;;5084905;28;20024;-60
2021/09/16 02:19:42;;;;;;;;;;;14.50;99.90;;;;;;5086591;28;20071;-59
2021/09/16 02:22:08;;;;;;;14.20;9.32;;;14.40;99.90;;;;;;5087178;28;20411;-61
2021/09/16 02:24:33;;;;;;;;;;;14.40;99.90;;;;;;5086796;28;20040;-61
2021/09/16 02:26:59;;;;;;;13.32;8.65;;;14.40;99.90;;;;;;5088606;28;19966;-59
2021/09/16 02:29:24;;;;;;;;;;;14.50;99.90;;;;;;5086808;28;20455;-59
2021/09/16 02:31:50;;;;;;;13.43;9.60;;;14.40;99.90;;;;;;5079245;28;20010;-59
2021/09/16 02:34:15;;;;;;;;;;;14.50;99.90;;;;;;5086679;28;20518;-59
2021/09/16 02:36:41;;;;;;;14.10;8.75;;;14.50;99.90;;;;;;5083533;28;19927;-59
2021/09/16 02:39:07;;;;;;;;;;;14.50;99.90;;;;;;5087738;28;20047;-61
2021/09/16 02:41:32;;;;;;;20.05;11.75;;;14.40;99.90;;;;;;5085684;28;19958;-60
2021/09/16 02:43:58;;;;;;;;;;;14.40;99.90;;;;;;5086839;28;20106;-60
2021/09/16 02:46:24;;;;;;;15.10;9.45;;;14.30;99.90;;;;;;5086525;28;19943;-60
2021/09/16 02:48:49;;;;;;;;;;;14.30;99.90;;;;;;5087302;28;20032;-60
2021/09/16 02:51:15;;;;;;;14.50;10.93;;;14.20;99.90;;;;;;5085859;28;19916;-59
2021/09/16 02:53:40;;;;;;;;;;;14.10;99.90;;;;;;5086394;28;20122;-60
2021/09/16 02:56:06;;;;;;;20.77;10.65;;;14.00;99.90;;;;;;5086402;28;19923;-60
2021/09/16 02:58:31;;;;;;;;;;;14.00;99.90;;;;;;5077678;28;20055;-59
2021/09/16 03:00:57;;;;;;;18.95;10.77;;;14.00;99.90;;;;;;5070647;28;19920;-59
2021/09/16 03:03:23;;;;;;;;;;;14.00;99.90;;;;;;5085220;28;20052;-58
2021/09/16 03:05:48;;;;;;;12.55;9.18;;;14.00;99.90;;;;;;5085224;28;19961;-59
2021/09/16 03:08:14;;;;;;;;;;;14.00;99.90;;;;;;5087315;28;20044;-60
2021/09/16 03:10:40;;;;;;;15.02;10.27;;;13.90;99.90;;;;;;5085947;28;19915;-59
2021/09/16 03:13:06;;;;;;;21.20;11.68;;;14.00;99.90;;;;;;5087006;28;20559;-60
2021/09/16 03:15:32;;;;;;;;;;;13.90;99.90;;;;;;5086162;28;20786;-60
2021/09/16 03:17:57;;;;;;;16.77;9.63;;;14.00;99.90;;;;;;5086390;28;19970;-60
2021/09/16 03:20:23;;;;;;;;;;;14.00;99.90;;;;;;5086299;28;20040;-57
2021/09/16 03:22:48;;;;;;;16.80;10.60;;;13.90;99.90;;;;;;5085933;28;19927;-61
2021/09/16 03:25:14;;;;;;;;;;;13.80;99.90;;;;;;5080683;28;20079;-63
2021/09/16 03:27:40;;;;;;;16.15;11.20;;;13.80;99.90;;;;;;5086015;28;20406;-61
2021/09/16 03:30:09;;;;;;;;;;;13.80;99.90;;;;;;5086370;28;20491;-60
2021/09/16 03:32:34;;;;;;;15.27;11.90;;;13.70;99.90;;;;;;5078323;28;19920;-60
2021/09/16 03:35:00;;;;;;;;;;;13.60;99.90;;;;;;5086740;28;20451;-60
2021/09/16 03:37:25;;;;;;;15.15;11.18;;;13.60;99.90;;;;;;5086576;28;19959;-61
2021/09/16 03:39:51;;;;;;;;;;;13.50;99.90;;;;;;5086022;28;20044;-61
2021/09/16 03:42:16;;;;;;;12.93;9.10;;;13.50;99.90;;;;;;5086327;28;19927;-60
2021/09/16 03:44:42;;;;;;;;;;;13.50;99.90;;;;;;5085747;28;20040;-62
2021/09/16 03:47:08;;;;;;;13.02;9.07;;;13.60;99.90;;;;;;5085781;28;19924;-61
2021/09/16 03:49:38;;;;;;;12.75;8.02;;;13.50;99.90;;;;;;5085812;28;20048;-57
2021/09/16 03:52:08;;;;;;;10.77;8.55;;;13.50;99.90;;;;;;5086248;28;20044;-61
2021/09/16 03:54:35;;;;;;;9.07;7.15;;;13.50;99.90;;;;;;5089673;28;20032;-62
2021/09/16 03:57:01;;;;;;;11.85;8.50;;;13.50;99.90;;;;;;5089871;28;20048;-61
2021/09/16 03:59:27;;;;;;;10.27;7.85;;;13.50;99.90;;;;;;5089294;28;20082;-62
2021/09/16 04:01:52;;;;;;;;;;;13.40;99.90;;;;;;5077843;28;20051;-60
2021/09/16 04:04:18;;;;;;;8.48;7.15;;;13.50;99.90;;;;;;5089506;28;19920;-61
2021/09/16 04:06:43;;;;;;;;;;;13.40;99.90;;;;;;5089866;28;20406;-61
2021/09/16 04:09:09;;;;;;;12.05;8.65;;;13.30;99.90;;;;;;5090022;28;19916;-61
2021/09/16 04:11:34;;;;;;;;;;;13.30;99.90;;;;;;5090430;28;20711;-62
2021/09/16 04:14:00;;;;;;;13.13;7.18;;;13.30;99.90;;;;;;5089928;28;20318;-61
2021/09/16 04:16:25;;;;;;;;;;;13.30;99.90;;;;;;5089172;28;20132;-61
2021/09/16 04:18:51;;;;;;;9.05;6.55;;;13.40;99.90;;;;;;5088692;28;19931;-61
2021/09/16 04:21:16;;;;;;;;;;;13.40;99.90;;;;;;5089223;28;20117;-61
2021/09/16 04:23:42;;;;;;;13.10;7.10;;;13.30;99.90;;;;;;5089308;28;19919;-61
2021/09/16 04:26:07;;;;;;;;;;;13.30;99.90;;;;;;5089463;28;20131;-61
2021/09/16 04:28:33;;;;;;;6.30;5.35;;;13.30;99.90;;;;;;5089117;28;19950;-62
2021/09/16 04:30:58;;;;;;;;;;;13.20;99.90;;;;;;5082615;28;20025;-60
2021/09/16 04:33:24;;;;;;;8.20;5.63;;;13.30;99.90;;;;;;5087866;28;19922;-61
2021/09/16 04:35:50;;;;;;;;;;;13.30;99.90;;;;;;5089091;28;20036;-61
2021/09/16 04:38:15;;;;;;;9.25;6.28;;;13.30;99.90;;;;;;5087877;28;20416;-60
2021/09/16 04:40:41;;;;;;;;;;;13.20;99.90;;;;;;5088843;28;20032;-61
2021/09/16 04:43:07;;;;;;;9.75;4.78;;;13.20;99.90;;;;;;5088674;28;19923;-61
2021/09/16 04:45:32;;;;;;;;;;;13.10;99.90;;;;;;5088536;28;20456;-60
2021/09/16 04:47:58;;;;;;;8.25;4.35;;;13.00;99.90;;;;;;5089211;28;20003;-61
2021/09/16 04:50:24;;;;;;;;;;;13.00;99.90;;;;;;5088512;28;20036;-61
2021/09/16 04:52:49;;;;;;;8.45;4.75;;;12.90;99.90;;;;;;5088137;28;19920;-61
2021/09/16 04:55:15;;;;;;;;;;;12.90;99.90;;;;;;5089075;28;20066;-62
2021/09/16 04:57:40;;;;;;;8.57;4.32;;;12.90;99.90;;;;;;5086832;28;19916;-61
2021/09/16 05:00:06;;;;;;;;;;;12.90;99.90;;;;;;5067422;28;20697;-62
2021/09/16 05:02:32;;;;;;;7.82;4.00;;;12.80;99.90;;;;;;5086144;28;19970;-61
2021/09/16 05:04:57;;;;;;;;;;;12.90;99.90;;;;;;5089503;28;20060;-63
2021/09/16 05:07:23;;;;;;;8.15;3.67;;;12.80;99.90;;;;;;5088005;28;19965;-62
2021/09/16 05:09:48;;;;;;;;;;;12.80;99.90;;;;;;5088225;28;20495;-61
2021/09/16 05:12:14;;;;;;;6.03;3.33;;;12.80;99.90;;;;;;5088177;28;20409;-63
2021/09/16 05:14:39;;;;;;;;;;;12.80;99.90;;;;;;5089170;28;20036;-62
2021/09/16 05:17:05;;;;;;;10.35;2.55;;;12.80;99.90;;;;;;5088761;28;19920;-62
2021/09/16 05:19:30;;;;;;;;;;;12.70;99.90;;;;;;5086534;28;20035;-62
2021/09/16 05:21:56;;;;;;;6.07;2.47;;;12.70;99.90;;;;;;5089158;28;19933;-62
2021/09/16 05:24:21;;;;;;;;;;;12.80;99.90;;;;;;5089235;28;20135;-61
2021/09/16 05:26:47;;;;;;;5.10;2.45;;;12.80;99.90;;;;;;5088930;28;20333;-62
2021/09/16 05:29:13;;;;;;;;;;;12.80;99.90;;;;;;5089796;28;20040;-62
2021/09/16 05:31:39;;;;;;;6.15;2.70;;;12.80;99.90;;;;;;5080956;28;19920;-62
2021/09/16 05:34:04;;;;;;;;;;;12.80;99.90;;;;;;5089027;28;20036;-62
2021/09/16 05:36:30;;;;;;;5.90;1.95;;;12.80;99.90;;;;;;5088779;28;20314;-62
2021/09/16 05:38:55;;;;;;;;;;;12.70;99.90;;;;;;5089016;28;20573;-62
2021/09/16 05:41:21;;;;;;;7.50;2.08;;;12.70;99.90;;;;;;5087854;28;19920;-62
2021/09/16 05:43:46;;;;;;;;;;;12.70;99.90;;;;;;5087906;28;20474;-61
2021/09/16 05:46:12;;;;;;;5.10;2.40;;;12.60;99.90;;;;;;5087892;28;19923;-60
2021/09/16 05:48:37;;;;;;;;;;;12.70;99.90;;;;;;5087188;28;20452;-63
2021/09/16 05:51:03;;;;;;;4.53;2.50;;;12.70;99.90;;;;;;5087204;28;19989;-61
2021/09/16 05:53:28;;;;;;;;;;;12.70;99.90;;;;;;5088351;28;20093;-62
2021/09/16 05:55:54;;;;;;;8.60;3.50;;;12.70;99.90;;;;;;5086714;28;19916;-61
2021/09/16 05:58:19;;;;;;;;;;;12.70;99.90;;;;;;5088457;28;20036;-62
2021/09/16 06:00:45;;;;;;;47.85;24.00;;;12.70;99.90;;;;;;5082825;28;19916;-60
2021/09/16 06:03:10;;;;;;;;;;;12.80;99.90;;;;;;5085579;28;20024;-60
2021/09/16 06:05:36;;;;;;;9.98;5.88;;;12.90;99.90;;;;;;5084359;28;19977;-60
2021/09/16 06:08:02;;;;;;;;;;;12.80;99.90;;;;;;5087579;28;20510;-61
2021/09/16 06:10:28;;;;;;;6.85;4.03;;;12.80;99.90;;;;;;5086524;28;19915;-61
2021/09/16 06:12:53;;;;;;;;;;;12.80;99.90;;;;;;5086767;28;20047;-61
2021/09/16 06:15:19;;;;;;;9.70;3.80;;;12.80;99.90;;;;;;5086256;28;20081;-58
2021/09/16 06:17:44;;;;;;;;;;;12.70;99.90;;;;;;5087171;28;20495;-61
2021/09/16 06:20:11;;;;;;;13.68;8.45;;;12.80;99.90;;;;;;5086134;28;20315;-61
2021/09/16 06:22:37;;;;;;;8.40;4.15;;;12.80;99.90;;;;;;5086176;28;20043;-60
2021/09/16 06:25:03;;;;;;;;;;;12.70;99.90;;;;;;5087581;28;20074;-58
2021/09/16 06:27:28;;;;;;;7.28;3.33;;;12.70;99.90;;;;;;5087103;28;19926;-59
2021/09/16 06:29:53;;;;;;;;;;;12.70;99.90;;;;;;5085011;28;20040;-61
2021/09/16 06:32:19;;;;;;;12.15;5.97;;;12.80;99.90;;;;;;5079066;28;20010;-60
2021/09/16 06:34:44;;;;;;;;;;;12.90;99.90;;;;;;5087254;28;20089;-60
2021/09/16 06:37:10;;;;;;;4.97;2.90;;;12.90;99.90;;;;;;5079569;28;19920;-59
2021/09/16 06:39:36;;;;;;;;;;;12.90;99.90;;;;;;5083590;28;20085;-61
2021/09/16 06:42:01;;;;;;;6.90;2.53;;;12.90;99.90;;;;;;5086010;28;20008;-61
2021/09/16 06:44:27;;;;;;;;;;;12.90;99.90;;;;;;5085879;28;20040;-60
2021/09/16 06:46:52;;;;;;;6.60;2.20;;;13.00;99.90;;;;;;5085821;28;19927;-61
2021/09/16 06:49:18;;;;;;;;;;;12.90;99.90;;;;;;5086929;28;20049;-60
2021/09/16 06:51:44;;;;;;;4.82;1.75;;;13.00;99.90;;;;;;5083374;28;21128;-61
2021/09/16 06:54:09;;;;;;;;;;;13.00;99.90;;;;;;5066610;28;20036;-61
2021/09/16 06:56:35;;;;;;;5.53;2.45;;;13.00;99.90;;;;;;5065486;28;19916;-59
2021/09/16 06:59:01;;;;;;;;;;;13.00;99.90;;;;;;5074268;28;20034;-59
2021/09/16 07:01:26;;;;;;;7.07;2.60;;;13.10;99.90;;;;;;5077573;28;20824;-60
2021/09/16 07:03:52;;;;;;;;;;;13.00;99.90;;;;;;5079146;28;20039;-60
2021/09/16 07:06:18;;;;;;;4.15;2.50;;;13.10;99.90;;;;;;5077973;28;19924;-60
2021/09/16 07:08:44;;;;;;;5.22;2.13;;;13.10;99.90;;;;;;5086550;28;20036;-59
2021/09/16 07:11:09;;;;;;;;;;;13.20;99.90;;;;;;5082774;28;20074;-60
2021/09/16 07:13:35;;;;;;;7.88;3.40;;;13.20;99.90;;;;;;5077605;28;19958;-61
2021/09/16 07:16:00;;;;;;;;;;;13.20;99.90;;;;;;5076852;28;20044;-59
2021/09/16 07:18:26;;;;;;;7.63;3.30;;;13.10;99.90;;;;;;5079616;28;20004;-60
2021/09/16 07:20:51;;;;;;;;;;;13.20;99.90;;;;;;5077989;28;20452;-59
2021/09/16 07:23:17;;;;;;;5.80;3.30;;;13.20;99.90;;;;;;5075514;28;20026;-60
2021/09/16 07:25:42;;;;;;;;;;;13.20;99.90;;;;;;5083610;28;20028;-59
2021/09/16 07:28:08;;;;;;;7.45;3.10;;;13.20;99.90;;;;;;5083640;28;20315;-60
2021/09/16 07:30:33;;;;;;;;;;;13.20;99.90;;;;;;5079424;28;20066;-60
2021/09/16 07:32:59;;;;;;;6.95;3.85;;;13.30;99.90;;;;;;5085880;28;19916;-60
2021/09/16 07:35:24;;;;;;;;;;;13.30;99.90;;;;;;5091452;28;20598;-60
2021/09/16 07:37:50;;;;;;;5.55;3.22;;;13.30;99.90;;;;;;5090299;28;20003;-59
2021/09/16 07:40:15;;;;;;;;;;;13.20;99.90;;;;;;5090142;28;20043;-63
2021/09/16 07:42:41;;;;;;;6.55;2.88;;;13.20;99.90;;;;;;5090103;28;20010;-62
2021/09/16 07:45:07;;;;;;;;;;;13.30;99.90;;;;;;5091004;28;20086;-61
2021/09/16 07:47:33;;;;;;;5.18;2.88;;;13.40;99.90;;;;;;5090855;28;19924;-61
2021/09/16 07:49:58;;;;;;;;;;;13.40;99.90;;;;;;5090406;28;20093;-61
2021/09/16 07:52:24;;;;;;;6.63;2.75;;;13.40;99.90;;;;;;5090331;28;19920;-62
2021/09/16 07:54:49;;;;;;;;;;;13.50;99.90;;;;;;5090335;28;20593;-61
2021/09/16 07:57:15;;;;;;;5.35;2.08;;;13.50;99.90;;;;;;5089250;28;20497;-62
2021/09/16 07:59:40;;;;;;;;;;;13.60;99.90;;;;;;5090259;28;20036;-61
2021/09/16 08:02:06;;;;;;;6.03;1.90;;;13.50;99.90;;;;;;5082217;28;19958;-61
2021/09/16 08:04:31;;;;;;;;;;;13.60;99.90;;;;;;5091138;28;20036;-61
2021/09/16 08:06:57;;;;;;;5.63;2.20;;;13.60;99.90;;;;;;5089281;28;19928;-61
2021/09/16 08:09:23;;;;;;;;;;;13.70;99.90;;;;;;5090477;28;20031;-61
2021/09/16 08:11:49;;;;;;;6.20;2.33;;;13.70;99.90;;;;;;5089752;28;19912;-62
2021/09/16 08:14:15;;;;;;;;;;;13.80;99.90;;;;;;5090071;28;20384;-61
2021/09/16 08:16:41;;;;;;;8.40;1.73;;;13.90;99.90;;;;;;5090224;28;19942;-63
2021/09/16 08:19:07;;;;;;;8.05;2.05;;;14.00;99.90;;;;;;5089276;28;20392;-61
2021/09/16 08:21:33;;;;;;;6.40;2.17;;;14.00;99.90;;;;;;5088982;28;20480;-61
2021/09/16 08:24:00;;;;;;;6.55;2.25;;;13.90;99.90;;;;;;5089496;28;20136;-60
2021/09/16 08:26:25;;;;;;;4.70;2.45;;;13.90;99.90;;;;;;5089414;28;20119;-61
2021/09/16 08:28:51;;;;;;;;;;;13.80;99.90;;;;;;5090443;28;20142;-61
2021/09/16 08:31:17;;;;;;;6.80;2.15;;;13.80;99.90;;;;;;5081507;28;20031;-61
2021/09/16 08:33:44;;;;;;;5.15;1.65;;;13.90;99.90;;;;;;5085332;28;20043;-61
2021/09/16 08:36:10;;;;;;;7.65;2.30;;;13.90;99.90;;;;;;5088880;28;20556;-61
2021/09/16 08:38:36;;;;;;;;;;;14.00;99.90;;;;;;5089366;28;20040;-62
2021/09/16 08:41:02;;;;;;;4.53;1.83;;;14.00;99.90;;;;;;5088893;28;19920;-61
2021/09/16 08:43:31;;;;;;;5.03;2.05;;;14.00;99.90;;;;;;5089454;28;20503;-61
2021/09/16 08:45:59;;;;;;;6.57;2.88;;;14.10;99.90;;;;;;5088921;28;20105;-61
2021/09/16 08:48:25;;;;;;;4.75;1.80;;;14.20;99.90;;;;;;5089412;28;20062;-61
2021/09/16 08:50:51;;;;;;;;;;;14.20;99.90;;;;;;5088598;28;20492;-61
2021/09/16 08:53:22;;;;;;;6.88;1.90;;;14.30;99.90;;;;;;5088576;28;20375;-61
2021/09/16 08:55:49;;;;;;;4.00;1.83;;;14.30;99.90;;;;;;5088919;28;20055;-61
2021/09/16 08:58:18;;;;;;;5.18;1.85;;;14.30;99.90;;;;;;5082453;28;20048;-62
2021/09/16 09:00:45;;;;;;;3.42;1.60;;;14.40;99.90;;;;;;5067249;28;20040;-61
2021/09/16 09:03:11;;;;;;;6.00;1.42;;;14.40;99.90;;;;;;5083425;28;20044;-61
2021/09/16 09:05:37;;;;;;;;;;;14.30;99.90;;;;;;5073824;28;20051;-61
2021/09/16 09:08:03;;;;;;;4.45;1.40;;;14.40;99.90;;;;;;5081959;28;19923;-62
2021/09/16 09:10:31;;;;;;;;;;;14.70;99.90;;;;;;5085938;28;20044;-61
2021/09/16 09:12:58;;;;;;;5.43;1.58;;;14.90;99.90;;;;;;5088795;28;19916;-61
2021/09/16 09:15:24;;;;;;;2.97;1.67;;;14.90;99.90;;;;;;5088303;28;20810;-62
2021/09/16 09:18:13;;;;;;;;;;;14.90;99.90;;;;;;5089491;28;20047;-61
2021/09/16 09:21:02;;;;;;;3.70;1.77;;;14.80;99.90;;;;;;5087832;28;19939;-62
2021/09/16 09:23:54;;;;;;;4.43;2.03;;;14.60;99.90;;;;;;5087767;28;20044;-62
2021/09/16 09:26:20;;;;;;;14.32;6.95;;;14.50;99.90;;;;;;5084821;28;20060;-62
2021/09/16 09:28:45;;;;;;;;;;;14.50;99.90;;;;;;5088809;28;20483;-60
2021/09/16 09:31:17;;;;;;;4.70;2.30;;;14.50;99.90;;;;;;5080526;28;19977;-60
2021/09/16 09:33:44;;;;;;;4.30;2.35;;;14.40;99.90;;;;;;5087676;28;20035;-60
2021/09/16 09:36:18;;;;;;;3.03;2.20;;;14.50;99.90;;;;;;5088119;28;20040;-60
2021/09/16 09:39:02;;;;;;;4.93;1.92;;;14.50;99.90;;;;;;5086862;28;20041;-61
2021/09/16 09:41:27;;;;;;;5.72;2.25;;;14.50;99.90;;;;;;5082832;28;20042;-61
2021/09/16 09:44:02;;;;;;;;;;;14.60;99.90;;;;;;5087723;28;20119;-61
2021/09/16 09:46:28;;;;;;;23.35;10.38;;;14.50;99.90;;;;;;5088271;28;19958;-61
2021/09/16 09:49:02;;;;;;;;;;;14.60;99.90;;;;;;5089095;28;20423;-62
2021/09/16 09:51:55;;;;;;;3.88;2.30;;;14.70;99.90;;;;;;5087293;28;19916;-62
2021/09/16 09:54:31;;;;;;;3.53;2.38;;;14.70;99.90;;;;;;5085814;28;20055;-63
2021/09/16 09:56:58;;;;;;;4.55;2.75;;;14.70;99.90;;;;;;5082694;28;20118;-63
2021/09/16 09:59:25;;;;;;;5.75;2.63;;;14.80;99.90;;;;;;5072012;28;20055;-62
2021/09/16 10:02:03;;;;;;;8.73;2.83;;;15.00;99.90;;;;;;5074426;28;20051;-62
2021/09/16 10:04:30;;;;;;;3.75;2.72;;;14.90;99.90;;;;;;5087890;28;20463;-62
2021/09/16 10:06:59;;;;;;;6.72;2.65;;;15.00;99.90;;;;;;5085784;28;20048;-62
2021/09/16 10:09:25;;;;;;;4.22;2.78;;;14.80;99.90;;;;;;5082289;28;20043;-62
2021/09/16 10:11:51;;;;;;;;;;;14.80;99.90;;;;;;5078087;28;20120;-61
2021/09/16 10:14:18;;;;;;;7.25;2.75;;;14.80;99.90;;;;;;5078259;28;20002;-62
2021/09/16 10:16:44;;;;;;;4.65;3.03;;;14.80;99.90;;;;;;5065360;28;20040;-62
2021/09/16 10:19:11;;;;;;;5.55;3.63;;;14.70;99.90;;;;;;5067294;28;20040;-62
2021/09/16 10:21:37;;;;;;;5.45;3.13;;;14.60;99.90;;;;;;5073996;28;20050;-62
2021/09/16 10:24:03;;;;;;;;;;;14.60;99.90;;;;;;5077029;28;20044;-62
2021/09/16 10:26:38;;;;;;;5.43;3.35;;;14.60;99.90;;;;;;5077946;28;19962;-62
2021/09/16 10:29:06;;;;;;;8.50;4.68;;;14.60;99.90;;;;;;5077031;28;20064;-62
2021/09/16 10:31:32;;;;;;;7.20;3.95;;;14.60;99.90;;;;;;5086043;28;20115;-62
2021/09/16 10:33:58;;;;;;;;;;;14.50;99.90;;;;;;5087638;28;20127;-61
2021/09/16 10:36:24;;;;;;;6.57;4.47;;;14.30;99.90;;;;;;5087556;28;19975;-62
2021/09/16 10:38:51;;;;;;;;;;;14.30;99.90;;;;;;5088044;28;20047;-62
2021/09/16 10:41:30;;;;;;;7.15;4.22;;;14.30;99.90;;;;;;5086930;28;19912;-62
2021/09/16 10:43:59;;;;;;;7.97;3.60;;;14.40;99.90;;;;;;5086940;28;20047;-61
2021/09/16 10:46:35;;;;;;;4.50;2.95;;;14.40;99.90;;;;;;5086548;28;20059;-61
2021/09/16 10:49:19;;;;;;;5.18;3.92;;;14.40;99.90;;;;;;5087682;28;20506;-61
2021/09/16 10:51:47;;;;;;;4.40;3.38;;;14.40;99.90;;;;;;5085984;28;20083;-61
2021/09/16 10:54:40;;;;;;;4.80;3.50;;;14.40;99.90;;;;;;5087193;28;20047;-61
2021/09/16 10:57:14;;;;;;;4.03;3.17;;;14.50;99.90;;;;;;5087558;28;20113;-61
2021/09/16 10:59:49;;;;;;;5.60;3.17;;;14.40;99.90;;;;;;5067810;28;20040;-61
2021/09/16 11:02:25;;;;;;;4.65;3.08;;;14.40;99.90;;;;;;5075255;28;20109;-62
2021/09/16 11:04:59;;;;;;;6.28;3.13;;;14.40;99.90;;;;;;5079796;28;20040;-62
2021/09/16 11:07:34;;;;;;;5.72;3.85;;;14.40;99.90;;;;;;5085861;28;20055;-62
2021/09/16 11:12:42;;;;;;;6.22;3.88;;;14.40;99.90;;;;;;5085896;28;20055;-62
2021/09/16 11:15:12;;;;;;;6.90;3.75;;;14.50;99.90;;;;;;5085307;28;20086;-62
2021/09/16 11:17:39;;;;;;;5.10;3.97;;;14.50;99.90;;;;;;5086791;28;20083;-62
2021/09/16 11:20:07;;;;;;;7.63;4.10;;;14.60;99.90;;;;;;5085423;28;20047;-61
2021/09/16 11:22:32;;;;;;;4.88;4.00;;;14.60;99.90;;;;;;5085335;28;20048;-62
2021/09/16 11:24:58;;;;;;;;;;;14.60;99.90;;;;;;5086606;28;20442;-61
2021/09/16 11:27:29;;;;;;;5.78;3.80;;;14.60;99.90;;;;;;5086049;28;19920;-62
2021/09/16 11:29:57;;;;;;;4.72;3.67;;;14.60;99.90;;;;;;5085631;28;20052;-61
2021/09/16 11:32:30;;;;;;;7.18;4.00;;;14.70;99.90;;;;;;5078217;28;20048;-62
2021/09/16 11:35:05;;;;;;;5.30;3.75;;;14.60;99.90;;;;;;5086198;28;20048;-61
2021/09/16 11:37:38;;;;;;;5.13;3.63;;;14.70;99.90;;;;;;5085861;28;20530;-61
2021/09/16 11:40:10;;;;;;;6.68;4.15;;;14.70;99.90;;;;;;5085105;28;20083;-62
2021/09/16 11:42:40;;;;;;;5.47;3.85;;;14.70;99.90;;;;;;5085506;28;20051;-61
2021/09/16 11:45:20;;;;;;;9.13;4.55;;;14.80;99.90;;;;;;5086031;28;20065;-61
2021/09/16 11:47:54;;;;;;;7.20;3.97;;;14.90;99.90;;;;;;5086181;28;20048;-62
2021/09/16 11:50:28;;;;;;;12.13;6.00;;;14.90;99.90;;;;;;5084751;28;20040;-63
2021/09/16 11:53:09;;;;;;;5.60;4.07;;;14.90;99.90;;;;;;5085129;28;20043;-61
2021/09/16 11:55:40;;;;;;;9.88;5.15;;;14.90;99.90;;;;;;5086051;28;20161;-62
2021/09/16 11:58:12;;;;;;;6.28;3.97;;;15.00;99.90;;;;;;5085586;28;20389;-62
2021/09/16 12:00:59;;;;;;;6.68;4.70;;;15.20;99.90;;;;;;5083760;28;20036;-62
2021/09/16 12:03:30;;;;;;;8.65;4.60;;;15.30;99.90;;;;;;5085397;28;20036;-62
2021/09/16 12:06:06;;;;;;;10.13;5.00;;;15.30;99.90;;;;;;5085013;28;20058;-61
2021/09/16 12:08:36;;;;;;;7.88;5.35;;;15.20;99.90;;;;;;5084420;28;20028;-61
2021/09/16 12:11:18;;;;;;;7.00;4.82;;;15.20;99.90;;;;;;5085422;28;20040;-62
2021/09/16 12:13:47;;;;;;;9.75;5.43;;;15.20;99.90;;;;;;5087806;28;20070;-62
2021/09/16 12:16:18;;;;;;;8.02;5.30;;;15.00;99.90;;;;;;5085592;28;20045;-61
2021/09/16 12:18:56;;;;;;;16.27;6.55;;;15.10;99.90;;;;;;5080383;28;20040;-62
2021/09/16 12:21:37;;;;;;;9.48;6.25;;;15.00;99.90;;;;;;5078576;28;20531;-62
2021/09/16 12:24:27;;;;;;;12.70;7.80;;;15.00;99.90;;;;;;5079954;28;20671;-62
2021/09/16 12:26:55;;;;;;;11.45;6.90;;;15.20;99.90;;;;;;5070764;28;20311;-62
2021/09/16 12:29:34;;;;;;;13.10;7.45;;;15.30;99.90;;;;;;5090548;28;20044;-61
2021/09/16 12:32:10;;;;;;;11.52;8.20;;;15.30;99.90;;;;;;5082490;28;20043;-56
2021/09/16 12:34:40;;;;;;;17.15;8.93;;;15.20;99.90;;;;;;5083961;28;20043;-59
2021/09/16 12:37:11;;;;;;;11.25;8.13;;;15.20;99.90;;;;;;5080263;28;20419;-60
2021/09/16 12:39:55;;;;;;;14.30;8.23;;;15.20;99.90;;;;;;5072231;28;20051;-61
2021/09/16 12:42:28;;;;;;;10.85;7.75;;;15.20;99.90;;;;;;5082013;28;20188;-60
2021/09/16 12:44:54;;;;;;;11.25;7.50;;;15.20;99.90;;;;;;5062697;28;20400;-61
2021/09/16 12:47:19;;;;;;;;;;;15.30;99.90;;;;;;5061279;28;20044;-61
2021/09/16 12:49:45;;;;;;;12.38;8.25;;;15.20;99.90;;;;;;5069677;28;19920;-61
2021/09/16 12:52:16;;;;;;;;;;;15.30;99.90;;;;;;5063518;28;20044;-60
2021/09/16 12:54:44;;;;;;;12.93;7.90;;;15.50;99.90;;;;;;5067643;28;19927;-61
2021/09/16 12:57:10;;;;;;;11.30;8.18;;;15.70;99.90;;;;;;5065561;28;20404;-61
2021/09/16 12:59:36;;;;;;;12.15;8.18;;;15.70;99.90;;;;;;5061560;28;20033;-62
2021/09/16 13:02:09;;;;;;;;;;;15.50;99.90;;;;;;5047650;28;20037;-61
2021/09/16 13:04:48;;;;;;;19.92;8.85;;;15.60;99.90;;;;;;5054058;28;20918;-62
2021/09/16 13:07:14;;;;;;;12.77;8.50;;;15.50;99.90;;;;;;5057725;28;20041;-61
2021/09/16 13:09:40;;;;;;;;;;;15.50;99.90;;;;;;5058063;28;20114;-62
2021/09/16 13:12:18;;;;;;;14.93;9.35;;;15.60;99.90;;;;;;5057738;28;19932;-61
2021/09/16 13:14:44;;;;;;;13.45;9.07;;;15.50;99.90;;;;;;5058233;28;20037;-61
2021/09/16 13:17:10;;;;;;;;;;;15.50;99.90;;;;;;5056938;28;20047;-61